メインページ
METAR-TAF:

METAR-TAF

空港 :

カラチ, パキスタン

ジンナー国際空港

緯度: 24-54N, 経度: 067-08E, 海抜: 21m

現時点の気象観測

当レポートは3時間6分前の17:55(UTC)に作成
無風
気温 25°C
湿度 79%
気圧 1011 hPa
視程: 6000m

METAR: OPKC 291755Z 00000KT 6000 NSC 25/21 Q1011 NOSIG

時間: 02:01 (21:01 UTC)

予報

当レポートは5時間31分前の15:30(UTC)に作成
予報は29日の 18時(UTC)から 30日の 24時(UTC)まで有効
西の風 10kt
視程: 5000m
高度2000ftの雲はほとんどない
高度10000ftの雲は散在している
煙霧
時(UTC)から
西/南西の風 10kt、最大20ktの突風を伴う
視程: 7000m
時(UTC)から
西の風 10kt
視程: 5000m
高度2000ftの雲はほとんどない
高度10000ftの雲は散在している
煙霧

TAF: OPKC 291530Z 2918/3024 27010KT 5000 HZ FEW020 SCT100 FM 300600 24010G20KT 7000 NSC FM 301800 26010KT 5000 HZ FEW020 SCT100

4,000以上の空港の気象観測と天気予報(METAR報とTAF報)

利用可能な観測所は地図上に黄色い丸と赤い丸で示す。

丸の上にカーソルを重ねると観測所名を参照できる。

次にクリックすると気象観測と天気予報を参照できる。

マップの切り替え:黒色「×」印の緑ボタンをクリックして拡大、「-」印の緑ボタンをクリックして縮小、緑色の三角印をクリックして隣りの地図に切り替え


METAR-TAF: